createdAt,value
2019-03-23T00:00:10.529Z,23.90
2019-03-23T00:02:40.010Z,22.33
2019-03-23T00:05:09.431Z,24.60
2019-03-23T00:07:38.759Z,20.67
2019-03-23T00:10:08.294Z,25.17
2019-03-23T00:12:37.725Z,25.03
2019-03-23T00:15:07.991Z,21.47
2019-03-23T00:17:37.669Z,23.43
2019-03-23T00:20:07.420Z,21.80
2019-03-23T00:22:37.979Z,23.57
2019-03-23T00:25:07.720Z,21.00
2019-03-23T00:27:39.431Z,21.70
2019-03-23T00:30:09.870Z,20.87
2019-03-23T00:32:39.910Z,25.60
2019-03-23T00:35:09.871Z,24.10
2019-03-23T00:37:39.473Z,23.83
2019-03-23T00:40:09.360Z,23.83
2019-03-23T00:42:38.874Z,24.73
2019-03-23T00:45:09.222Z,23.13
2019-03-23T00:47:38.846Z,23.67
2019-03-23T00:50:08.367Z,25.17
2019-03-23T00:52:37.951Z,23.03
2019-03-23T00:55:08.132Z,24.23
2019-03-23T00:57:37.390Z,23.57
2019-03-23T01:00:08.002Z,26.73
2019-03-23T01:02:37.520Z,22.17
2019-03-23T01:05:07.284Z,25.50
2019-03-23T01:07:37.746Z,25.83
2019-03-23T01:10:08.242Z,23.87
2019-03-23T01:12:37.578Z,23.97
2019-03-23T01:15:08.226Z,23.67
2019-03-23T01:17:37.880Z,23.83
2019-03-23T01:20:08.122Z,24.90
2019-03-23T01:22:37.369Z,24.40
2019-03-23T01:25:07.489Z,24.20
2019-03-23T01:27:36.884Z,23.10
2019-03-23T01:30:08.887Z,23.83
2019-03-23T01:32:38.618Z,22.07
2019-03-23T01:35:09.076Z,23.27
2019-03-23T01:37:38.357Z,22.33
2019-03-23T01:40:07.763Z,23.80
2019-03-23T01:42:37.106Z,25.80
2019-03-23T01:45:07.282Z,25.07
2019-03-23T01:47:36.549Z,23.52
2019-03-23T01:50:06.303Z,26.63
2019-03-23T01:52:35.970Z,26.77
2019-03-23T01:55:05.950Z,26.03
2019-03-23T01:57:35.227Z,26.77
2019-03-23T02:00:05.782Z,23.87
2019-03-23T02:02:35.240Z,23.93
2019-03-23T02:05:05.050Z,24.87
2019-03-23T02:07:36.014Z,25.70
2019-03-23T02:10:06.476Z,23.63
2019-03-23T02:12:35.750Z,24.27
2019-03-23T02:15:05.760Z,22.37
2019-03-23T02:17:36.022Z,25.60
2019-03-23T02:20:06.201Z,24.23
2019-03-23T02:22:35.635Z,17.45
2019-03-23T02:25:06.109Z,24.03
2019-03-23T02:27:35.616Z,22.00
2019-03-23T02:30:05.626Z,23.47
2019-03-23T02:32:37.979Z,23.50
2019-03-23T02:35:08.040Z,18.07
2019-03-23T02:37:37.370Z,23.63
2019-03-23T02:40:07.402Z,22.97
2019-03-23T02:42:36.950Z,24.50
2019-03-23T02:45:07.435Z,24.00
2019-03-23T02:47:36.994Z,25.63
2019-03-23T02:50:07.327Z,23.80
2019-03-23T02:52:37.013Z,27.40
2019-03-23T02:55:06.887Z,24.23
2019-03-23T02:57:36.188Z,26.67
2019-03-23T03:00:07.328Z,25.17
2019-03-23T03:02:36.992Z,24.63
2019-03-23T03:05:07.519Z,23.33
2019-03-23T03:07:42.369Z,23.50
2019-03-23T03:10:08.604Z,23.10
2019-03-23T03:12:37.889Z,24.30
2019-03-23T03:15:07.575Z,22.80
2019-03-23T03:17:37.230Z,21.83
2019-03-23T03:20:07.432Z,23.07
2019-03-23T03:22:37.071Z,21.53
2019-03-23T03:25:08.345Z,25.17
2019-03-23T03:27:38.923Z,21.73
2019-03-23T03:30:08.825Z,26.27
2019-03-23T03:32:38.360Z,21.23
2019-03-23T03:35:07.957Z,21.40
2019-03-23T03:37:37.263Z,21.30
2019-03-23T03:40:07.277Z,20.60
2019-03-23T03:42:36.479Z,18.27
2019-03-23T03:45:05.921Z,21.17
2019-03-23T03:47:35.180Z,21.10
2019-03-23T03:50:04.950Z,19.87
2019-03-23T03:52:34.271Z,14.98
2019-03-23T03:55:03.645Z,20.70
2019-03-23T03:57:32.875Z,20.00
2019-03-23T04:00:02.218Z,19.03
2019-03-23T04:02:31.551Z,19.17
2019-03-23T04:05:00.956Z,21.40
2019-03-23T04:07:30.323Z,19.50
2019-03-23T04:10:00.597Z,21.52
2019-03-23T04:12:30.211Z,21.70
2019-03-23T04:14:59.455Z,21.63
2019-03-23T04:17:29.779Z,20.93
2019-03-23T04:19:59.001Z,21.90
2019-03-23T04:22:28.441Z,20.47
2019-03-23T04:24:57.756Z,21.87
2019-03-23T04:27:27.037Z,21.03
2019-03-23T04:29:56.324Z,21.83
2019-03-23T04:32:25.783Z,21.20
2019-03-23T04:34:55.250Z,19.40
2019-03-23T04:37:24.684Z,20.17
2019-03-23T04:39:54.082Z,23.23
2019-03-23T04:42:23.347Z,19.10
2019-03-23T04:44:52.861Z,19.97
2019-03-23T04:47:23.020Z,21.43
2019-03-23T04:49:52.666Z,20.57
2019-03-23T04:52:22.303Z,17.87
2019-03-23T04:54:51.756Z,19.87
2019-03-23T04:57:21.138Z,19.30
2019-03-23T04:59:50.694Z,18.57
2019-03-23T05:02:20.007Z,17.77
2019-03-23T05:04:50.536Z,19.67
2019-03-23T05:07:20.089Z,19.48
2019-03-23T05:09:49.462Z,21.00
2019-03-23T05:12:18.717Z,22.10
2019-03-23T05:14:47.971Z,16.73
2019-03-23T05:17:17.242Z,19.60
2019-03-23T05:19:46.524Z,19.70
2019-03-23T05:22:15.737Z,18.33
2019-03-23T05:24:45.223Z,17.17
2019-03-23T05:27:14.586Z,15.97
2019-03-23T05:29:44.073Z,20.23
2019-03-23T05:32:13.510Z,18.97
2019-03-23T05:34:42.747Z,17.30
2019-03-23T05:37:13.156Z,18.47
2019-03-23T05:39:42.514Z,17.90
2019-03-23T05:42:13.954Z,19.13
2019-03-23T05:44:43.303Z,17.17
2019-03-23T05:47:12.862Z,18.27
2019-03-23T05:49:42.094Z,17.57
2019-03-23T05:52:11.331Z,17.37
2019-03-23T05:54:40.887Z,17.83
2019-03-23T05:57:10.102Z,17.77
2019-03-23T05:59:39.638Z,17.17
2019-03-23T06:02:08.893Z,17.03
2019-03-23T06:04:38.410Z,16.23
2019-03-23T06:07:07.950Z,16.47
2019-03-23T06:09:37.568Z,16.23
2019-03-23T06:12:07.035Z,15.47
2019-03-23T06:14:36.373Z,13.85
2019-03-23T06:17:06.301Z,14.83
2019-03-23T06:19:35.678Z,14.70
2019-03-23T06:22:05.534Z,14.40
2019-03-23T06:24:36.130Z,15.45
2019-03-23T06:27:06.031Z,15.80
2019-03-23T06:29:35.342Z,15.68
2019-03-23T06:32:05.133Z,15.05
2019-03-23T06:34:34.624Z,15.88
2019-03-23T06:37:04.044Z,15.20
2019-03-23T06:39:33.369Z,15.28
2019-03-23T06:42:02.577Z,16.48
2019-03-23T06:44:31.887Z,15.40
2019-03-23T06:47:01.474Z,15.93
2019-03-23T06:49:30.714Z,15.28
2019-03-23T06:52:00.227Z,16.95
2019-03-23T06:54:29.874Z,16.45
2019-03-23T06:56:59.119Z,16.80
2019-03-23T06:59:28.422Z,15.27
2019-03-23T07:01:58.402Z,16.55
2019-03-23T07:04:27.642Z,15.98
2019-03-23T07:06:57.014Z,17.57
2019-03-23T07:09:26.481Z,17.12
2019-03-23T07:11:56.051Z,16.70
2019-03-23T07:14:25.922Z,17.07
2019-03-23T07:16:55.247Z,17.00
2019-03-23T07:19:24.873Z,16.37
2019-03-23T07:21:54.387Z,18.23
2019-03-23T07:24:24.189Z,17.30
2019-03-23T07:26:53.782Z,17.20
2019-03-23T07:29:23.465Z,16.48
2019-03-23T07:31:53.312Z,18.17
2019-03-23T07:34:22.774Z,18.15
2019-03-23T07:36:52.402Z,17.73
2019-03-23T07:39:27.201Z,17.15
2019-03-23T07:41:53.052Z,18.30
2019-03-23T07:44:22.762Z,16.55
2019-03-23T07:46:52.093Z,16.85
2019-03-23T07:49:24.478Z,18.17
2019-03-23T07:51:54.386Z,18.15
2019-03-23T07:54:23.770Z,17.20
2019-03-23T07:56:52.986Z,18.23
2019-03-23T07:59:22.530Z,17.23
2019-03-23T08:01:52.110Z,18.05
2019-03-23T08:04:21.378Z,19.07
2019-03-23T08:06:50.740Z,17.98
2019-03-23T08:09:23.476Z,18.95
2019-03-23T08:11:52.421Z,18.33
2019-03-23T08:14:21.807Z,18.67
2019-03-23T08:16:52.015Z,19.10
2019-03-23T08:19:22.794Z,19.77
2019-03-23T08:21:52.326Z,18.73
2019-03-23T08:24:21.922Z,19.32
2019-03-23T08:26:51.614Z,20.65
2019-03-23T08:29:23.863Z,17.55
2019-03-23T08:31:54.575Z,20.05
2019-03-23T08:34:24.255Z,19.60
2019-03-23T08:36:56.433Z,19.42
2019-03-23T08:39:28.922Z,19.95
2019-03-23T08:41:59.771Z,18.98
2019-03-23T08:44:32.710Z,20.05
2019-03-23T08:47:02.121Z,19.13
2019-03-23T08:49:31.627Z,20.62
2019-03-23T08:52:01.058Z,20.77
2019-03-23T08:54:31.209Z,19.73
2019-03-23T08:57:00.690Z,20.85
2019-03-23T08:59:30.039Z,20.60
2019-03-23T09:01:59.519Z,19.75
2019-03-23T09:04:28.749Z,20.62
2019-03-23T09:06:58.078Z,19.15
2019-03-23T09:09:27.421Z,20.08
2019-03-23T09:11:56.849Z,20.08
2019-03-23T09:14:26.102Z,20.37
2019-03-23T09:16:55.410Z,19.25
2019-03-23T09:19:25.370Z,19.65
2019-03-23T09:21:55.895Z,19.65
2019-03-23T09:24:25.389Z,18.87
2019-03-23T09:26:57.682Z,19.87
2019-03-23T09:29:26.984Z,19.30
2019-03-23T09:31:56.561Z,19.57
2019-03-23T09:34:26.357Z,19.20
2019-03-23T09:36:55.651Z,19.35
2019-03-23T09:39:25.036Z,18.27
2019-03-23T09:41:54.640Z,19.70
2019-03-23T09:44:24.491Z,18.25
2019-03-23T09:46:53.840Z,18.17
2019-03-23T09:49:23.321Z,20.30
2019-03-23T09:51:52.658Z,20.65
2019-03-23T09:54:22.531Z,19.07
2019-03-23T09:56:51.857Z,20.43
2019-03-23T09:59:21.142Z,18.10
2019-03-23T10:01:50.559Z,18.75
2019-03-23T10:04:19.853Z,18.20
2019-03-23T10:06:51.558Z,18.85
2019-03-23T10:09:21.179Z,18.35
2019-03-23T10:11:50.418Z,18.73
2019-03-23T10:14:19.720Z,19.82
2019-03-23T10:16:49.096Z,19.77
2019-03-23T10:19:20.352Z,19.50
2019-03-23T10:21:49.494Z,20.45
2019-03-23T10:24:18.938Z,21.62
2019-03-23T10:26:48.422Z,20.15
2019-03-23T10:29:17.845Z,21.40
2019-03-23T10:31:47.226Z,19.87
2019-03-23T10:34:16.425Z,19.60
2019-03-23T10:36:45.957Z,19.85
2019-03-23T10:39:15.599Z,23.10
2019-03-23T10:41:45.124Z,21.25
2019-03-23T10:44:14.570Z,20.43
2019-03-23T10:46:44.451Z,20.05
2019-03-23T10:49:14.399Z,20.95
2019-03-23T10:51:43.759Z,19.70
2019-03-23T10:54:13.350Z,19.35
2019-03-23T10:56:42.646Z,21.42
2019-03-23T10:59:11.854Z,26.42
2019-03-23T11:01:41.312Z,21.57
2019-03-23T11:04:11.020Z,21.25
2019-03-23T11:06:40.381Z,22.02
2019-03-23T11:09:09.745Z,22.10
2019-03-23T11:11:39.037Z,22.52
2019-03-23T11:14:08.306Z,21.65
2019-03-23T11:16:38.159Z,24.05
2019-03-23T11:19:13.308Z,22.45
2019-03-23T11:21:38.946Z,25.05
2019-03-23T11:24:08.293Z,25.62
2019-03-23T11:26:37.995Z,24.77
2019-03-23T11:29:08.418Z,24.98
2019-03-23T11:31:37.986Z,23.23
2019-03-23T11:34:07.197Z,24.43
2019-03-23T11:36:36.395Z,24.72
2019-03-23T11:39:07.934Z,26.07
2019-03-23T11:41:37.146Z,24.72
2019-03-23T11:44:09.691Z,23.98
2019-03-23T11:46:39.499Z,25.35
2019-03-23T11:49:08.984Z,28.67
2019-03-23T11:51:38.315Z,28.75
2019-03-23T11:54:07.802Z,27.95
2019-03-23T11:56:37.346Z,28.00
2019-03-23T11:59:06.865Z,27.62
2019-03-23T12:01:36.249Z,27.90
2019-03-23T12:04:05.555Z,26.70
2019-03-23T12:06:35.434Z,25.48
2019-03-23T12:09:07.144Z,24.07
2019-03-23T12:11:36.557Z,25.35
2019-03-23T12:14:06.113Z,26.60
2019-03-23T12:16:35.520Z,24.07
2019-03-23T12:19:05.091Z,24.02
2019-03-23T12:21:34.442Z,24.45
2019-03-23T12:24:04.175Z,24.90
2019-03-23T12:26:33.859Z,26.60
2019-03-23T12:29:03.363Z,25.77
2019-03-23T12:31:32.665Z,27.02
2019-03-23T12:34:02.031Z,24.75
2019-03-23T12:36:31.468Z,23.07
2019-03-23T12:39:01.160Z,21.60
2019-03-23T12:41:30.995Z,22.52
2019-03-23T12:44:00.462Z,24.30
2019-03-23T12:46:29.799Z,23.55
2019-03-23T12:48:59.149Z,23.40
2019-03-23T12:51:28.578Z,23.80
2019-03-23T12:53:58.450Z,25.02
2019-03-23T12:56:27.768Z,24.57
2019-03-23T12:58:57.505Z,24.32
2019-03-23T13:01:26.831Z,23.38
2019-03-23T13:03:56.549Z,24.10
2019-03-23T13:06:25.783Z,23.18
2019-03-23T13:08:56.556Z,27.32
2019-03-23T13:11:34.742Z,25.17
2019-03-23T13:13:57.235Z,25.12
2019-03-23T13:16:30.035Z,25.55
2019-03-23T13:18:59.813Z,26.02
2019-03-23T13:21:29.039Z,25.40
2019-03-23T13:23:58.485Z,24.02
2019-03-23T13:26:27.883Z,24.92
2019-03-23T13:28:57.217Z,23.65
2019-03-23T13:31:26.862Z,22.87
2019-03-23T13:33:56.273Z,23.25
2019-03-23T13:36:26.284Z,23.27
2019-03-23T13:38:55.562Z,21.43
2019-03-23T13:41:25.050Z,20.57
2019-03-23T13:44:03.084Z,22.98
2019-03-23T13:46:32.471Z,20.95
2019-03-23T13:49:02.069Z,21.75
2019-03-23T13:51:31.389Z,21.75
2019-03-23T13:54:00.844Z,19.65
2019-03-23T13:56:30.537Z,20.70
2019-03-23T13:59:00.173Z,20.50
2019-03-23T14:01:31.215Z,21.65
2019-03-23T14:04:01.765Z,20.45
2019-03-23T14:06:31.718Z,20.37
2019-03-23T14:09:01.175Z,22.87
2019-03-23T14:11:30.761Z,20.60
2019-03-23T14:14:00.165Z,19.50
2019-03-23T14:16:29.564Z,18.73
2019-03-23T14:18:58.804Z,18.85
2019-03-23T14:21:28.316Z,18.00
2019-03-23T14:23:57.697Z,21.57
2019-03-23T14:26:26.913Z,17.55
2019-03-23T14:28:56.188Z,17.82
2019-03-23T14:31:25.949Z,17.42
2019-03-23T14:33:55.512Z,20.50
2019-03-23T14:36:25.279Z,17.52
2019-03-23T14:38:54.786Z,18.70
2019-03-23T14:41:24.088Z,20.12
2019-03-23T14:43:55.739Z,16.77
2019-03-23T14:46:26.698Z,17.55
2019-03-23T14:49:01.598Z,18.45
2019-03-23T14:51:27.634Z,17.90
2019-03-23T14:53:57.273Z,14.70
2019-03-23T14:56:31.671Z,17.37
2019-03-23T14:58:57.739Z,18.12
2019-03-23T15:01:27.084Z,18.23
2019-03-23T15:03:56.506Z,18.00
2019-03-23T15:06:25.907Z,19.62
2019-03-23T15:08:55.258Z,18.70
2019-03-23T15:11:24.842Z,18.27
2019-03-23T15:13:54.472Z,18.10
2019-03-23T15:16:23.706Z,19.25
2019-03-23T15:18:52.969Z,18.05
2019-03-23T15:21:22.475Z,18.37
2019-03-23T15:23:52.069Z,16.27
2019-03-23T15:26:21.376Z,18.42
2019-03-23T15:28:52.902Z,18.83
2019-03-23T15:31:22.207Z,18.60
2019-03-23T15:33:51.495Z,18.48
2019-03-23T15:36:20.755Z,17.57
2019-03-23T15:38:50.083Z,17.07
2019-03-23T15:41:19.555Z,18.10
2019-03-23T15:43:48.885Z,18.15
2019-03-23T15:46:18.597Z,17.83
2019-03-23T15:48:48.058Z,17.32
2019-03-23T15:51:17.300Z,20.05
2019-03-23T15:53:47.118Z,16.95
2019-03-23T15:56:16.418Z,17.02
2019-03-23T15:58:45.669Z,15.90
2019-03-23T16:01:15.066Z,15.63
2019-03-23T16:03:44.527Z,16.73
2019-03-23T16:06:13.895Z,16.27
2019-03-23T16:08:43.512Z,15.08
2019-03-23T16:11:12.816Z,17.50
2019-03-23T16:13:42.098Z,15.40
2019-03-23T16:16:11.372Z,16.20
2019-03-23T16:18:40.792Z,15.13
2019-03-23T16:21:10.202Z,16.57
2019-03-23T16:23:40.442Z,15.73
2019-03-23T16:26:09.749Z,13.78
2019-03-23T16:28:39.174Z,14.80
2019-03-23T16:31:08.782Z,15.25
2019-03-23T16:33:38.112Z,14.43
2019-03-23T16:36:09.914Z,15.45
2019-03-23T16:38:39.788Z,14.28
2019-03-23T16:41:09.293Z,16.07
2019-03-23T16:43:38.533Z,13.68
2019-03-23T16:46:08.955Z,13.25
2019-03-23T16:48:38.191Z,12.73
2019-03-23T16:51:08.616Z,12.68
2019-03-23T16:53:38.306Z,12.53
2019-03-23T16:56:07.794Z,12.00
2019-03-23T16:58:37.146Z,11.20
2019-03-23T17:01:09.727Z,12.20
2019-03-23T17:03:38.940Z,11.38
2019-03-23T17:06:08.294Z,11.65
2019-03-23T17:08:37.598Z,11.05
2019-03-23T17:11:07.251Z,11.05
2019-03-23T17:13:36.515Z,10.10
2019-03-23T17:16:05.826Z,9.23
2019-03-23T17:18:35.329Z,9.60
2019-03-23T17:21:04.629Z,10.20
2019-03-23T17:23:33.903Z,10.48
2019-03-23T17:26:03.117Z,9.80
2019-03-23T17:28:32.838Z,9.85
2019-03-23T17:31:02.208Z,9.63
2019-03-23T17:33:31.678Z,9.83
2019-03-23T17:36:01.207Z,11.35
2019-03-23T17:38:30.914Z,10.65
2019-03-23T17:41:00.493Z,10.43
2019-03-23T17:43:30.119Z,8.90
2019-03-23T17:45:59.410Z,9.88
2019-03-23T17:48:28.891Z,10.23
2019-03-23T17:50:58.201Z,10.28
2019-03-23T17:53:28.433Z,9.33
2019-03-23T17:55:59.550Z,11.13
2019-03-23T17:58:28.842Z,11.12
2019-03-23T18:00:58.551Z,10.20
2019-03-23T18:03:27.925Z,9.40
2019-03-23T18:05:57.570Z,9.60
2019-03-23T18:08:27.167Z,9.58
2019-03-23T18:10:56.795Z,9.30
2019-03-23T18:13:26.717Z,8.43
2019-03-23T18:15:56.225Z,9.28
2019-03-23T18:18:25.697Z,7.87
2019-03-23T18:20:55.039Z,8.78
2019-03-23T18:23:24.975Z,9.23
2019-03-23T18:25:54.331Z,8.35
2019-03-23T18:28:23.651Z,9.43
2019-03-23T18:30:53.005Z,9.10
2019-03-23T18:33:22.949Z,7.75
2019-03-23T18:35:52.930Z,8.03
2019-03-23T18:38:22.477Z,8.95
2019-03-23T18:40:51.870Z,7.60
2019-03-23T18:43:27.430Z,9.20
2019-03-23T18:45:53.956Z,9.80
2019-03-23T18:48:23.206Z,10.03
2019-03-23T18:50:52.506Z,9.33
2019-03-23T18:53:23.920Z,9.75
2019-03-23T18:55:53.095Z,9.05
2019-03-23T18:58:22.330Z,10.18
2019-03-23T19:00:51.703Z,11.18
2019-03-23T19:03:21.147Z,11.00
2019-03-23T19:05:51.753Z,11.50
2019-03-23T19:08:21.140Z,12.00
2019-03-23T19:10:50.445Z,10.80
2019-03-23T19:13:19.798Z,12.03
2019-03-23T19:15:49.200Z,12.53
2019-03-23T19:18:18.465Z,12.13
2019-03-23T19:20:48.463Z,12.95
2019-03-23T19:23:17.921Z,13.03
2019-03-23T19:25:47.257Z,12.82
2019-03-23T19:28:16.774Z,12.88
2019-03-23T19:30:46.337Z,14.75
2019-03-23T19:33:16.241Z,14.87
2019-03-23T19:35:46.004Z,15.72
2019-03-23T19:38:20.342Z,16.32
2019-03-23T19:40:49.877Z,17.10
2019-03-23T19:43:19.745Z,16.50
2019-03-23T19:45:49.473Z,16.02
2019-03-23T19:48:18.694Z,16.15
2019-03-23T19:50:49.513Z,16.70
2019-03-23T19:53:21.017Z,19.40
2019-03-23T19:55:51.588Z,18.00
2019-03-23T19:58:21.427Z,18.12
2019-03-23T20:00:50.799Z,18.80
2019-03-23T20:03:20.368Z,16.87
2019-03-23T20:05:49.648Z,18.50
2019-03-23T20:08:19.221Z,17.80
2019-03-23T20:10:48.539Z,18.27
2019-03-23T20:13:17.982Z,17.82
2019-03-23T20:15:47.522Z,17.53
2019-03-23T20:18:19.590Z,19.80
2019-03-23T20:20:48.951Z,18.17
2019-03-23T20:23:24.364Z,19.32
2019-03-23T20:25:53.954Z,18.70
2019-03-23T20:28:23.720Z,18.57
2019-03-23T20:30:53.529Z,18.82
2019-03-23T20:33:23.070Z,17.67
2019-03-23T20:35:52.638Z,18.60
2019-03-23T20:38:22.040Z,17.55
2019-03-23T20:40:51.562Z,18.55
2019-03-23T20:43:21.237Z,17.15
2019-03-23T20:45:51.609Z,14.68
2019-03-23T20:48:23.913Z,16.33
2019-03-23T20:50:53.549Z,16.87
2019-03-23T20:53:22.831Z,15.45
2019-03-23T20:55:52.228Z,15.43
2019-03-23T20:58:22.558Z,15.65
2019-03-23T21:00:53.204Z,18.20
2019-03-23T21:03:22.558Z,16.50
2019-03-23T21:05:51.949Z,15.95
2019-03-23T21:08:21.315Z,17.32
2019-03-23T21:10:51.234Z,15.53
2019-03-23T21:13:20.880Z,15.30
2019-03-23T21:15:51.284Z,16.12
2019-03-23T21:18:20.570Z,16.73
2019-03-23T21:20:53.067Z,17.85
2019-03-23T21:23:22.398Z,18.25
2019-03-23T21:25:52.007Z,16.05
2019-03-23T21:28:21.905Z,16.00
2019-03-23T21:30:51.341Z,15.80
2019-03-23T21:33:20.753Z,15.00
2019-03-23T21:35:49.996Z,15.33
2019-03-23T21:38:19.265Z,14.57
2019-03-23T21:40:49.630Z,15.37
2019-03-23T21:43:19.250Z,13.57
2019-03-23T21:45:48.773Z,15.08
2019-03-23T21:48:18.065Z,13.57
2019-03-23T21:50:47.966Z,13.63
2019-03-23T21:53:18.040Z,14.23
2019-03-23T21:55:47.370Z,12.07
2019-03-23T21:58:16.662Z,13.57
2019-03-23T22:00:46.016Z,13.83
2019-03-23T22:03:25.968Z,13.53
2019-03-23T22:05:57.049Z,14.97
2019-03-23T22:08:26.384Z,13.63
2019-03-23T22:10:55.730Z,15.00
2019-03-23T22:13:25.085Z,12.27
2019-03-23T22:15:55.436Z,13.37
2019-03-23T22:18:27.980Z,13.03
2019-03-23T22:20:57.926Z,15.07
2019-03-23T22:23:30.581Z,15.73
2019-03-23T22:25:59.893Z,14.60
2019-03-23T22:28:33.838Z,16.37
2019-03-23T22:31:03.142Z,15.90
2019-03-23T22:33:32.371Z,15.80
2019-03-23T22:36:01.710Z,14.33
2019-03-23T22:38:31.254Z,15.30
2019-03-23T22:41:00.458Z,14.97
2019-03-23T22:43:30.146Z,16.23
2019-03-23T22:45:59.447Z,17.13
2019-03-23T22:48:28.689Z,17.67
2019-03-23T22:50:58.058Z,16.37
2019-03-23T22:53:27.387Z,16.87
2019-03-23T22:55:56.683Z,17.90
2019-03-23T22:58:26.733Z,17.47
2019-03-23T23:00:56.659Z,18.07
2019-03-23T23:03:26.901Z,19.13
2019-03-23T23:05:56.626Z,18.67
2019-03-23T23:08:26.256Z,19.90
2019-03-23T23:10:55.578Z,19.07
2019-03-23T23:13:25.569Z,18.27
2019-03-23T23:16:01.025Z,19.13
2019-03-23T23:18:30.459Z,18.17
2019-03-23T23:21:00.038Z,18.42
2019-03-23T23:23:38.366Z,17.67
2019-03-23T23:26:07.740Z,18.80
2019-03-23T23:28:37.087Z,18.10
2019-03-23T23:31:06.566Z,18.10
2019-03-23T23:33:36.119Z,17.43
2019-03-23T23:36:05.687Z,19.13
2019-03-23T23:38:35.125Z,19.17
2019-03-23T23:41:04.697Z,19.97
2019-03-23T23:43:33.929Z,19.80
2019-03-23T23:46:03.281Z,17.97
2019-03-23T23:48:32.586Z,19.47
2019-03-23T23:51:01.819Z,17.83
2019-03-23T23:53:31.054Z,17.70
2019-03-23T23:56:00.638Z,19.60
2019-03-23T23:58:29.954Z,15.93
